sensor_id;sensor_type;location;lat;lon;timestamp;pressure;altitude;pressure_sealevel;temperature;humidity
10988;BME280;5547;42.672;23.230;2022-11-14T00:01:53;94434.91;;;1.12;100.00
10988;BME280;5547;42.672;23.230;2022-11-14T00:04:18;94431.56;;;1.03;100.00
10988;BME280;5547;42.672;23.230;2022-11-14T00:06:43;94436.59;;;1.08;100.00
10988;BME280;5547;42.672;23.230;2022-11-14T00:09:09;94427.03;;;1.12;100.00
10988;BME280;5547;42.672;23.230;2022-11-14T00:11:34;94439.03;;;1.13;100.00
10988;BME280;5547;42.672;23.230;2022-11-14T00:13:59;94431.84;;;1.01;100.00
10988;BME280;5547;42.672;23.230;2022-11-14T00:16:24;94439.59;;;0.98;100.00
10988;BME280;5547;42.672;23.230;2022-11-14T00:18:50;94438.22;;;0.92;100.00
10988;BME280;5547;42.672;23.230;2022-11-14T00:21:16;94436.53;;;0.87;100.00
10988;BME280;5547;42.672;23.230;2022-11-14T00:23:42;94439.44;;;0.94;100.00
10988;BME280;5547;42.672;23.230;2022-11-14T00:26:07;94437.03;;;0.80;100.00
10988;BME280;5547;42.672;23.230;2022-11-14T00:28:32;94444.47;;;0.70;100.00
10988;BME280;5547;42.672;23.230;2022-11-14T00:30:58;94440.31;;;0.69;100.00
10988;BME280;5547;42.672;23.230;2022-11-14T00:33:23;94440.19;;;0.65;100.00
10988;BME280;5547;42.672;23.230;2022-11-14T00:35:51;94442.00;;;0.73;100.00
10988;BME280;5547;42.672;23.230;2022-11-14T00:38:17;94442.66;;;0.61;100.00
10988;BME280;5547;42.672;23.230;2022-11-14T00:40:42;94442.47;;;0.67;100.00
10988;BME280;5547;42.672;23.230;2022-11-14T00:43:07;94436.47;;;0.66;100.00
10988;BME280;5547;42.672;23.230;2022-11-14T00:45:33;94436.03;;;0.55;100.00
10988;BME280;5547;42.672;23.230;2022-11-14T00:47:58;94439.75;;;0.54;100.00
10988;BME280;5547;42.672;23.230;2022-11-14T00:50:23;94440.84;;;0.45;100.00
10988;BME280;5547;42.672;23.230;2022-11-14T00:52:48;94434.69;;;0.49;100.00
10988;BME280;5547;42.672;23.230;2022-11-14T00:55:14;94431.91;;;0.46;100.00
10988;BME280;5547;42.672;23.230;2022-11-14T00:57:39;94436.72;;;0.35;100.00
10988;BME280;5547;42.672;23.230;2022-11-14T01:00:05;94431.63;;;0.38;100.00
10988;BME280;5547;42.672;23.230;2022-11-14T01:02:30;94430.56;;;0.39;100.00
10988;BME280;5547;42.672;23.230;2022-11-14T01:04:55;94427.50;;;0.29;100.00
10988;BME280;5547;42.672;23.230;2022-11-14T01:07:20;94423.00;;;0.47;100.00
10988;BME280;5547;42.672;23.230;2022-11-14T01:09:46;94424.03;;;0.54;100.00
10988;BME280;5547;42.672;23.230;2022-11-14T01:12:11;94424.50;;;0.48;100.00
10988;BME280;5547;42.672;23.230;2022-11-14T01:14:37;94428.34;;;0.50;100.00
10988;BME280;5547;42.672;23.230;2022-11-14T01:17:03;94423.94;;;0.42;100.00
10988;BME280;5547;42.672;23.230;2022-11-14T01:19:28;94431.59;;;0.56;100.00
10988;BME280;5547;42.672;23.230;2022-11-14T01:21:53;94421.53;;;0.67;100.00
10988;BME280;5547;42.672;23.230;2022-11-14T01:24:19;94423.41;;;0.57;100.00
10988;BME280;5547;42.672;23.230;2022-11-14T01:26:44;94424.78;;;0.63;100.00
10988;BME280;5547;42.672;23.230;2022-11-14T01:29:09;94422.31;;;0.67;100.00
10988;BME280;5547;42.672;23.230;2022-11-14T01:31:35;94420.75;;;0.66;100.00
10988;BME280;5547;42.672;23.230;2022-11-14T01:34:00;94413.84;;;0.61;100.00
10988;BME280;5547;42.672;23.230;2022-11-14T01:36:26;94410.38;;;0.49;100.00
10988;BME280;5547;42.672;23.230;2022-11-14T01:38:52;94408.81;;;0.48;100.00
10988;BME280;5547;42.672;23.230;2022-11-14T01:41:18;94408.97;;;0.51;100.00
10988;BME280;5547;42.672;23.230;2022-11-14T01:43:43;94409.28;;;0.50;100.00
10988;BME280;5547;42.672;23.230;2022-11-14T01:46:11;94405.72;;;0.46;100.00
10988;BME280;5547;42.672;23.230;2022-11-14T01:48:45;94400.03;;;0.44;100.00
10988;BME280;5547;42.672;23.230;2022-11-14T01:53:56;94390.91;;;0.67;100.00
10988;BME280;5547;42.672;23.230;2022-11-14T01:56:31;94391.50;;;0.64;100.00
10988;BME280;5547;42.672;23.230;2022-11-14T01:59:16;94394.94;;;0.56;100.00
10988;BME280;5547;42.672;23.230;2022-11-14T02:01:44;94389.69;;;0.56;100.00
10988;BME280;5547;42.672;23.230;2022-11-14T02:04:10;94387.66;;;0.61;100.00
10988;BME280;5547;42.672;23.230;2022-11-14T02:06:37;94387.81;;;0.65;100.00
10988;BME280;5547;42.672;23.230;2022-11-14T02:09:04;94374.41;;;0.67;100.00
10988;BME280;5547;42.672;23.230;2022-11-14T02:11:32;94372.72;;;0.62;100.00
10988;BME280;5547;42.672;23.230;2022-11-14T02:13:58;94379.53;;;0.54;100.00
10988;BME280;5547;42.672;23.230;2022-11-14T02:16:24;94373.72;;;0.49;100.00
10988;BME280;5547;42.672;23.230;2022-11-14T02:18:50;94350.84;;;0.28;100.00
10988;BME280;5547;42.672;23.230;2022-11-14T02:21:15;94365.69;;;0.54;100.00
10988;BME280;5547;42.672;23.230;2022-11-14T02:23:40;94361.38;;;0.58;100.00
10988;BME280;5547;42.672;23.230;2022-11-14T02:26:06;94361.84;;;0.51;100.00
10988;BME280;5547;42.672;23.230;2022-11-14T02:28:34;94357.06;;;0.53;100.00
10988;BME280;5547;42.672;23.230;2022-11-14T02:30:59;94354.81;;;0.73;100.00
10988;BME280;5547;42.672;23.230;2022-11-14T02:33:24;94356.84;;;0.67;100.00
10988;BME280;5547;42.672;23.230;2022-11-14T02:35:50;94360.22;;;0.76;100.00
10988;BME280;5547;42.672;23.230;2022-11-14T02:38:15;94360.56;;;0.57;100.00
10988;BME280;5547;42.672;23.230;2022-11-14T02:40:40;94356.16;;;0.49;100.00
10988;BME280;5547;42.672;23.230;2022-11-14T02:43:06;94366.34;;;0.42;100.00
10988;BME280;5547;42.672;23.230;2022-11-14T02:45:31;94360.84;;;0.35;100.00
10988;BME280;5547;42.672;23.230;2022-11-14T02:47:56;94369.47;;;0.27;100.00
10988;BME280;5547;42.672;23.230;2022-11-14T02:50:22;94364.25;;;0.18;100.00
10988;BME280;5547;42.672;23.230;2022-11-14T02:52:47;94368.84;;;0.30;100.00
10988;BME280;5547;42.672;23.230;2022-11-14T02:55:12;94368.41;;;0.19;100.00
10988;BME280;5547;42.672;23.230;2022-11-14T02:57:38;94365.81;;;0.19;100.00
10988;BME280;5547;42.672;23.230;2022-11-14T03:00:04;94372.56;;;0.20;100.00
10988;BME280;5547;42.672;23.230;2022-11-14T03:02:29;94360.28;;;0.12;100.00
10988;BME280;5547;42.672;23.230;2022-11-14T03:04:55;94361.50;;;0.06;100.00
10988;BME280;5547;42.672;23.230;2022-11-14T03:07:20;94352.44;;;0.03;100.00
10988;BME280;5547;42.672;23.230;2022-11-14T03:09:45;94355.06;;;0.03;100.00
10988;BME280;5547;42.672;23.230;2022-11-14T03:12:11;94360.41;;;0.15;100.00
10988;BME280;5547;42.672;23.230;2022-11-14T03:14:39;94361.34;;;0.02;100.00
10988;BME280;5547;42.672;23.230;2022-11-14T03:17:04;94355.22;;;-0.02;100.00
10988;BME280;5547;42.672;23.230;2022-11-14T03:19:30;94354.16;;;-0.10;100.00
10988;BME280;5547;42.672;23.230;2022-11-14T03:21:55;94351.53;;;-0.01;100.00
10988;BME280;5547;42.672;23.230;2022-11-14T03:24:20;94355.81;;;0.12;100.00
10988;BME280;5547;42.672;23.230;2022-11-14T03:26:45;94358.16;;;-0.04;100.00
10988;BME280;5547;42.672;23.230;2022-11-14T03:29:11;94360.78;;;-0.12;100.00
10988;BME280;5547;42.672;23.230;2022-11-14T03:31:36;94353.56;;;-0.15;100.00
10988;BME280;5547;42.672;23.230;2022-11-14T03:34:01;94349.56;;;-0.13;100.00
10988;BME280;5547;42.672;23.230;2022-11-14T03:36:27;94351.53;;;-0.01;100.00
10988;BME280;5547;42.672;23.230;2022-11-14T03:38:52;94345.25;;;-0.09;100.00
10988;BME280;5547;42.672;23.230;2022-11-14T03:41:17;94348.78;;;-0.05;100.00
10988;BME280;5547;42.672;23.230;2022-11-14T03:43:42;94348.03;;;-0.14;100.00
10988;BME280;5547;42.672;23.230;2022-11-14T03:46:08;94350.31;;;-0.21;100.00
10988;BME280;5547;42.672;23.230;2022-11-14T03:48:33;94344.03;;;-0.20;100.00
10988;BME280;5547;42.672;23.230;2022-11-14T03:50:58;94346.47;;;-0.15;100.00
10988;BME280;5547;42.672;23.230;2022-11-14T03:53:25;94352.16;;;-0.13;100.00
10988;BME280;5547;42.672;23.230;2022-11-14T03:55:50;94357.03;;;0.06;100.00
10988;BME280;5547;42.672;23.230;2022-11-14T03:58:16;94343.97;;;-0.03;100.00
10988;BME280;5547;42.672;23.230;2022-11-14T04:00:41;94340.31;;;-0.10;100.00
10988;BME280;5547;42.672;23.230;2022-11-14T04:03:07;94338.16;;;-0.17;100.00
10988;BME280;5547;42.672;23.230;2022-11-14T04:05:32;94348.78;;;-0.13;100.00
10988;BME280;5547;42.672;23.230;2022-11-14T04:07:58;94353.72;;;-0.20;100.00
10988;BME280;5547;42.672;23.230;2022-11-14T04:10:23;94351.56;;;-0.18;100.00
10988;BME280;5547;42.672;23.230;2022-11-14T04:12:53;94357.22;;;-0.16;100.00
10988;BME280;5547;42.672;23.230;2022-11-14T04:15:19;94346.47;;;-0.15;100.00
10988;BME280;5547;42.672;23.230;2022-11-14T04:17:44;94346.94;;;-0.22;100.00
10988;BME280;5547;42.672;23.230;2022-11-14T04:20:10;94344.34;;;-0.30;100.00
10988;BME280;5547;42.672;23.230;2022-11-14T04:22:36;94340.19;;;-0.40;100.00
10988;BME280;5547;42.672;23.230;2022-11-14T04:25:02;94334.66;;;-0.47;100.00
10988;BME280;5547;42.672;23.230;2022-11-14T04:27:27;94340.19;;;-0.49;100.00
10988;BME280;5547;42.672;23.230;2022-11-14T04:29:52;94338.03;;;-0.47;100.00
10988;BME280;5547;42.672;23.230;2022-11-14T04:32:18;94331.47;;;-0.53;100.00
10988;BME280;5547;42.672;23.230;2022-11-14T04:34:43;94337.28;;;-0.56;100.00
10988;BME280;5547;42.672;23.230;2022-11-14T04:37:09;94336.69;;;-0.61;100.00
10988;BME280;5547;42.672;23.230;2022-11-14T04:39:34;94333.75;;;-0.69;100.00
10988;BME280;5547;42.672;23.230;2022-11-14T04:41:59;94336.03;;;-0.67;100.00
10988;BME280;5547;42.672;23.230;2022-11-14T04:44:28;94336.53;;;-0.56;100.00
10988;BME280;5547;42.672;23.230;2022-11-14T04:46:53;94334.53;;;-0.51;100.00
10988;BME280;5547;42.672;23.230;2022-11-14T04:49:19;94334.06;;;-0.53;100.00
10988;BME280;5547;42.672;23.230;2022-11-14T04:51:44;94330.84;;;-0.50;100.00
10988;BME280;5547;42.672;23.230;2022-11-14T04:54:10;94324.06;;;-0.33;100.00
10988;BME280;5547;42.672;23.230;2022-11-14T04:56:35;94332.06;;;-0.38;100.00
10988;BME280;5547;42.672;23.230;2022-11-14T04:59:00;94323.00;;;-0.32;100.00
10988;BME280;5547;42.672;23.230;2022-11-14T05:01:25;94319.88;;;-0.17;100.00
10988;BME280;5547;42.672;23.230;2022-11-14T05:03:51;94321.56;;;-0.21;100.00
10988;BME280;5547;42.672;23.230;2022-11-14T05:06:16;94326.19;;;-0.27;100.00
10988;BME280;5547;42.672;23.230;2022-11-14T05:08:41;94321.69;;;0.00;100.00
10988;BME280;5547;42.672;23.230;2022-11-14T05:11:11;94325.69;;;-0.03;100.00
10988;BME280;5547;42.672;23.230;2022-11-14T05:13:37;94330.16;;;-0.12;100.00
10988;BME280;5547;42.672;23.230;2022-11-14T05:16:02;94332.66;;;-0.24;100.00
10988;BME280;5547;42.672;23.230;2022-11-14T05:18:27;94344.63;;;-0.06;100.00
10988;BME280;5547;42.672;23.230;2022-11-14T05:20:53;94339.72;;;-0.16;100.00
10988;BME280;5547;42.672;23.230;2022-11-14T05:23:22;94334.34;;;-0.28;100.00
10988;BME280;5547;42.672;23.230;2022-11-14T05:28:45;94350.53;;;-0.44;100.00
10988;BME280;5547;42.672;23.230;2022-11-14T05:31:12;94349.75;;;-0.53;100.00
10988;BME280;5547;42.672;23.230;2022-11-14T05:33:38;94346.34;;;-0.53;100.00
10988;BME280;5547;42.672;23.230;2022-11-14T05:36:07;94348.34;;;-0.59;100.00
10988;BME280;5547;42.672;23.230;2022-11-14T05:38:33;94347.91;;;-0.61;100.00
10988;BME280;5547;42.672;23.230;2022-11-14T05:40:58;94342.84;;;-0.57;100.00
10988;BME280;5547;42.672;23.230;2022-11-14T05:43:24;94354.34;;;-0.50;100.00
10988;BME280;5547;42.672;23.230;2022-11-14T05:45:49;94349.44;;;-0.43;100.00
10988;BME280;5547;42.672;23.230;2022-11-14T05:48:15;94346.97;;;-0.39;100.00
10988;BME280;5547;42.672;23.230;2022-11-14T05:50:40;94348.66;;;-0.34;100.00
10988;BME280;5547;42.672;23.230;2022-11-14T05:53:05;94347.13;;;-0.35;100.00
10988;BME280;5547;42.672;23.230;2022-11-14T05:55:31;94352.63;;;-0.28;100.00
10988;BME280;5547;42.672;23.230;2022-11-14T05:57:56;94350.34;;;-0.30;100.00
10988;BME280;5547;42.672;23.230;2022-11-14T06:00:22;94355.13;;;-0.23;100.00
10988;BME280;5547;42.672;23.230;2022-11-14T06:02:50;94356.47;;;-0.17;100.00
10988;BME280;5547;42.672;23.230;2022-11-14T06:05:15;94359.84;;;-0.08;100.00
10988;BME280;5547;42.672;23.230;2022-11-14T06:07:41;94357.38;;;-0.04;100.00
10988;BME280;5547;42.672;23.230;2022-11-14T06:10:06;94358.63;;;-0.02;100.00
10988;BME280;5547;42.672;23.230;2022-11-14T06:12:31;94362.75;;;0.08;100.00
10988;BME280;5547;42.672;23.230;2022-11-14T06:14:57;94368.41;;;0.19;100.00
10988;BME280;5547;42.672;23.230;2022-11-14T06:17:22;94377.31;;;0.18;100.00
10988;BME280;5547;42.672;23.230;2022-11-14T06:19:47;94375.44;;;0.36;100.00
10988;BME280;5547;42.672;23.230;2022-11-14T06:22:13;94382.34;;;0.40;100.00
10988;BME280;5547;42.672;23.230;2022-11-14T06:24:38;94387.09;;;0.47;100.00
10988;BME280;5547;42.672;23.230;2022-11-14T06:27:03;94379.06;;;0.52;100.00
10988;BME280;5547;42.672;23.230;2022-11-14T06:29:28;94372.16;;;0.48;100.00
10988;BME280;5547;42.672;23.230;2022-11-14T06:31:54;94368.75;;;0.56;100.00
10988;BME280;5547;42.672;23.230;2022-11-14T06:34:19;94377.06;;;0.58;100.00
10988;BME280;5547;42.672;23.230;2022-11-14T06:36:44;94371.09;;;0.49;100.00
10988;BME280;5547;42.672;23.230;2022-11-14T06:39:09;94371.44;;;0.38;100.00
10988;BME280;5547;42.672;23.230;2022-11-14T06:41:35;94362.34;;;0.45;100.00
10988;BME280;5547;42.672;23.230;2022-11-14T06:44:00;94360.47;;;0.45;100.00
10988;BME280;5547;42.672;23.230;2022-11-14T06:46:25;94363.06;;;0.54;100.00
10988;BME280;5547;42.672;23.230;2022-11-14T06:48:50;94359.91;;;0.69;100.00
10988;BME280;5547;42.672;23.230;2022-11-14T06:51:16;94359.25;;;0.81;100.00
10988;BME280;5547;42.672;23.230;2022-11-14T06:53:42;94361.72;;;0.77;100.00
10988;BME280;5547;42.672;23.230;2022-11-14T06:56:08;94349.63;;;0.94;100.00
10988;BME280;5547;42.672;23.230;2022-11-14T06:58:44;94352.28;;;0.85;100.00
10988;BME280;5547;42.672;23.230;2022-11-14T07:01:14;94353.00;;;0.94;100.00
10988;BME280;5547;42.672;23.230;2022-11-14T07:03:40;94356.22;;;1.00;100.00
10988;BME280;5547;42.672;23.230;2022-11-14T07:06:06;94350.72;;;0.93;100.00
10988;BME280;5547;42.672;23.230;2022-11-14T07:08:31;94351.94;;;0.95;100.00
10988;BME280;5547;42.672;23.230;2022-11-14T07:11:01;94359.09;;;1.07;100.00
10988;BME280;5547;42.672;23.230;2022-11-14T07:13:26;94358.97;;;1.24;100.00
10988;BME280;5547;42.672;23.230;2022-11-14T07:15:52;94359.31;;;1.44;100.00
10988;BME280;5547;42.672;23.230;2022-11-14T07:18:18;94359.53;;;1.39;100.00
10988;BME280;5547;42.672;23.230;2022-11-14T07:20:43;94364.56;;;1.44;100.00
10988;BME280;5547;42.672;23.230;2022-11-14T07:23:09;94360.47;;;1.55;100.00
10988;BME280;5547;42.672;23.230;2022-11-14T07:25:34;94365.38;;;1.36;100.00
10988;BME280;5547;42.672;23.230;2022-11-14T07:27:59;94360.22;;;1.48;100.00
10988;BME280;5547;42.672;23.230;2022-11-14T07:30:24;94361.63;;;1.66;100.00
10988;BME280;5547;42.672;23.230;2022-11-14T07:32:53;94356.09;;;1.80;100.00
10988;BME280;5547;42.672;23.230;2022-11-14T07:35:18;94358.25;;;1.99;100.00
10988;BME280;5547;42.672;23.230;2022-11-14T07:37:44;94347.63;;;1.96;100.00
10988;BME280;5547;42.672;23.230;2022-11-14T07:40:09;94347.84;;;2.03;100.00
10988;BME280;5547;42.672;23.230;2022-11-14T07:42:34;94342.00;;;2.18;100.00
10988;BME280;5547;42.672;23.230;2022-11-14T07:45:00;94344.53;;;2.51;100.00
10988;BME280;5547;42.672;23.230;2022-11-14T07:47:25;94350.59;;;2.52;100.00
10988;BME280;5547;42.672;23.230;2022-11-14T07:49:51;94348.06;;;2.56;100.00
10988;BME280;5547;42.672;23.230;2022-11-14T07:52:16;94341.72;;;2.69;100.00
10988;BME280;5547;42.672;23.230;2022-11-14T07:54:41;94344.34;;;2.69;100.00
10988;BME280;5547;42.672;23.230;2022-11-14T07:57:07;94340.84;;;2.77;100.00
10988;BME280;5547;42.672;23.230;2022-11-14T07:59:32;94337.34;;;2.73;100.00
10988;BME280;5547;42.672;23.230;2022-11-14T08:01:57;94338.22;;;2.77;100.00
10988;BME280;5547;42.672;23.230;2022-11-14T08:04:23;94334.03;;;3.13;100.00
10988;BME280;5547;42.672;23.230;2022-11-14T08:06:48;94335.53;;;3.14;100.00
10988;BME280;5547;42.672;23.230;2022-11-14T08:09:13;94328.53;;;3.18;100.00
10988;BME280;5547;42.672;23.230;2022-11-14T08:11:39;94332.91;;;3.14;100.00
10988;BME280;5547;42.672;23.230;2022-11-14T08:14:14;94337.34;;;3.10;100.00
10988;BME280;5547;42.672;23.230;2022-11-14T08:16:39;94337.19;;;3.19;100.00
10988;BME280;5547;42.672;23.230;2022-11-14T08:19:04;94336.72;;;3.41;100.00
10988;BME280;5547;42.672;23.230;2022-11-14T08:21:30;94345.09;;;3.06;100.00
10988;BME280;5547;42.672;23.230;2022-11-14T08:23:55;94343.59;;;3.46;100.00
10988;BME280;5547;42.672;23.230;2022-11-14T08:26:21;94335.31;;;3.31;100.00
10988;BME280;5547;42.672;23.230;2022-11-14T08:28:46;94337.53;;;3.05;100.00
10988;BME280;5547;42.672;23.230;2022-11-14T08:31:11;94338.38;;;3.33;100.00
10988;BME280;5547;42.672;23.230;2022-11-14T08:33:37;94336.63;;;3.66;100.00
10988;BME280;5547;42.672;23.230;2022-11-14T08:36:03;94338.09;;;3.51;100.00
10988;BME280;5547;42.672;23.230;2022-11-14T08:38:32;94332.06;;;3.50;100.00
10988;BME280;5547;42.672;23.230;2022-11-14T08:40:58;94330.41;;;3.18;100.00
10988;BME280;5547;42.672;23.230;2022-11-14T08:43:23;94339.91;;;3.63;100.00
10988;BME280;5547;42.672;23.230;2022-11-14T08:45:48;94329.22;;;3.84;100.00
10988;BME280;5547;42.672;23.230;2022-11-14T08:48:14;94324.97;;;4.23;100.00
10988;BME280;5547;42.672;23.230;2022-11-14T08:50:39;94320.34;;;4.20;100.00
10988;BME280;5547;42.672;23.230;2022-11-14T08:53:04;94320.53;;;4.11;100.00
10988;BME280;5547;42.672;23.230;2022-11-14T08:55:29;94310.00;;;4.11;100.00
10988;BME280;5547;42.672;23.230;2022-11-14T08:57:55;94319.16;;;4.02;100.00
10988;BME280;5547;42.672;23.230;2022-11-14T09:00:20;94318.31;;;3.97;100.00
10988;BME280;5547;42.672;23.230;2022-11-14T09:02:45;94321.22;;;4.40;100.00
10988;BME280;5547;42.672;23.230;2022-11-14T09:05:11;94314.41;;;4.39;98.36
10988;BME280;5547;42.672;23.230;2022-11-14T09:07:36;94310.59;;;4.20;97.47
10988;BME280;5547;42.672;23.230;2022-11-14T09:10:01;94312.97;;;4.10;98.87
10988;BME280;5547;42.672;23.230;2022-11-14T09:12:27;94311.03;;;4.38;99.21
10988;BME280;5547;42.672;23.230;2022-11-14T09:14:52;94303.56;;;4.40;97.05
10988;BME280;5547;42.672;23.230;2022-11-14T09:17:18;94299.72;;;4.70;96.36
10988;BME280;5547;42.672;23.230;2022-11-14T09:19:43;94297.97;;;4.58;95.34
10988;BME280;5547;42.672;23.230;2022-11-14T09:22:08;94293.88;;;4.29;96.37
10988;BME280;5547;42.672;23.230;2022-11-14T09:24:33;94294.19;;;4.27;97.44
10988;BME280;5547;42.672;23.230;2022-11-14T09:26:59;94295.31;;;4.58;95.07
10988;BME280;5547;42.672;23.230;2022-11-14T09:29:24;94291.56;;;4.43;95.45
10988;BME280;5547;42.672;23.230;2022-11-14T09:31:50;94285.22;;;4.60;94.56
10988;BME280;5547;42.672;23.230;2022-11-14T09:34:16;94288.69;;;4.48;96.08
10988;BME280;5547;42.672;23.230;2022-11-14T09:36:41;94285.38;;;4.67;95.03
10988;BME280;5547;42.672;23.230;2022-11-14T09:39:06;94276.50;;;4.59;94.22
10988;BME280;5547;42.672;23.230;2022-11-14T09:44:13;94274.75;;;4.48;96.97
10988;BME280;5547;42.672;23.230;2022-11-14T09:46:43;94271.94;;;4.56;97.86
10988;BME280;5547;42.672;23.230;2022-11-14T09:49:22;94268.44;;;4.68;97.41
10988;BME280;5547;42.672;23.230;2022-11-14T09:51:50;94265.34;;;4.82;96.12
10988;BME280;5547;42.672;23.230;2022-11-14T09:56:47;94259.47;;;4.53;96.74
10988;BME280;5547;42.672;23.230;2022-11-14T09:59:13;94260.47;;;4.65;96.93
10988;BME280;5547;42.672;23.230;2022-11-14T10:19:12;94239.44;;;5.03;92.48
10988;BME280;5547;42.672;23.230;2022-11-14T10:27:06;94223.13;;;5.56;90.11
10988;BME280;5547;42.672;23.230;2022-11-14T10:32:20;94217.03;;;5.75;88.47
10988;BME280;5547;42.672;23.230;2022-11-14T10:34:56;94220.34;;;5.68;88.26
10988;BME280;5547;42.672;23.230;2022-11-14T10:37:35;94213.75;;;5.82;87.71
10988;BME280;5547;42.672;23.230;2022-11-14T10:40:15;94208.81;;;6.00;87.09
10988;BME280;5547;42.672;23.230;2022-11-14T10:42:42;94206.38;;;6.10;86.56
10988;BME280;5547;42.672;23.230;2022-11-14T10:47:35;94200.72;;;6.12;86.18
10988;BME280;5547;42.672;23.230;2022-11-14T10:50:08;94202.97;;;6.10;85.55
10988;BME280;5547;42.672;23.230;2022-11-14T10:52:37;94201.75;;;6.30;85.10
10988;BME280;5547;42.672;23.230;2022-11-14T10:55:06;94194.25;;;6.59;84.26
10988;BME280;5547;42.672;23.230;2022-11-14T10:57:36;94188.56;;;6.57;83.02
10988;BME280;5547;42.672;23.230;2022-11-14T11:00:07;94189.66;;;6.83;82.03
10988;BME280;5547;42.672;23.230;2022-11-14T11:02:45;94195.03;;;6.90;81.27
10988;BME280;5547;42.672;23.230;2022-11-14T11:05:13;94193.59;;;6.96;82.01
10988;BME280;5547;42.672;23.230;2022-11-14T11:07:43;94186.44;;;6.97;80.83
10988;BME280;5547;42.672;23.230;2022-11-14T11:10:27;94181.06;;;6.89;81.38
10988;BME280;5547;42.672;23.230;2022-11-14T11:13:11;94184.53;;;6.97;81.52
10988;BME280;5547;42.672;23.230;2022-11-14T11:15:38;94179.63;;;6.96;80.56
10988;BME280;5547;42.672;23.230;2022-11-14T11:18:13;94181.69;;;7.09;80.90
10988;BME280;5547;42.672;23.230;2022-11-14T11:20:46;94173.66;;;7.36;79.93
10988;BME280;5547;42.672;23.230;2022-11-14T11:23:25;94169.25;;;7.51;80.16
10988;BME280;5547;42.672;23.230;2022-11-14T11:26:00;94166.44;;;7.70;78.76
10988;BME280;5547;42.672;23.230;2022-11-14T11:28:30;94163.84;;;7.77;76.66
10988;BME280;5547;42.672;23.230;2022-11-14T11:31:05;94167.38;;;7.92;76.66
10988;BME280;5547;42.672;23.230;2022-11-14T11:33:32;94173.06;;;7.91;75.97
10988;BME280;5547;42.672;23.230;2022-11-14T11:36:05;94168.50;;;7.91;76.82
10988;BME280;5547;42.672;23.230;2022-11-14T11:38:31;94169.66;;;7.90;76.83
10988;BME280;5547;42.672;23.230;2022-11-14T11:41:21;94168.00;;;7.78;77.60
10988;BME280;5547;42.672;23.230;2022-11-14T11:48:56;94150.81;;;8.03;75.91
10988;BME280;5547;42.672;23.230;2022-11-14T11:51:26;94157.91;;;7.91;75.93
10988;BME280;5547;42.672;23.230;2022-11-14T11:54:03;94146.97;;;7.96;76.28
10988;BME280;5547;42.672;23.230;2022-11-14T11:56:31;94149.69;;;8.04;75.72
10988;BME280;5547;42.672;23.230;2022-11-14T11:59:13;94141.47;;;8.16;74.99
10988;BME280;5547;42.672;23.230;2022-11-14T12:01:41;94143.66;;;8.07;75.14
10988;BME280;5547;42.672;23.230;2022-11-14T12:04:07;94142.81;;;7.99;74.94
10988;BME280;5547;42.672;23.230;2022-11-14T12:06:34;94144.28;;;7.89;76.00
10988;BME280;5547;42.672;23.230;2022-11-14T12:09:09;94143.66;;;8.07;75.09
10988;BME280;5547;42.672;23.230;2022-11-14T12:11:38;94136.44;;;8.04;75.96
10988;BME280;5547;42.672;23.230;2022-11-14T12:24:58;94123.41;;;8.36;73.42
10988;BME280;5547;42.672;23.230;2022-11-14T12:32:05;94117.31;;;8.28;73.99
10988;BME280;5547;42.672;23.230;2022-11-14T12:34:33;94113.91;;;8.31;73.64
10988;BME280;5547;42.672;23.230;2022-11-14T12:37:06;94118.78;;;8.22;73.92
10988;BME280;5547;42.672;23.230;2022-11-14T12:39:32;94117.63;;;8.16;74.79
10988;BME280;5547;42.672;23.230;2022-11-14T12:42:01;94120.53;;;8.04;75.31
10988;BME280;5547;42.672;23.230;2022-11-14T12:47:25;94113.81;;;8.17;74.64
10988;BME280;5547;42.672;23.230;2022-11-14T12:54:55;94109.34;;;8.28;74.18
10988;BME280;5547;42.672;23.230;2022-11-14T12:57:24;94104.00;;;8.21;74.26
10988;BME280;5547;42.672;23.230;2022-11-14T13:00:11;94102.44;;;8.13;74.69
10988;BME280;5547;42.672;23.230;2022-11-14T13:05:29;94095.28;;;8.17;74.09
10988;BME280;5547;42.672;23.230;2022-11-14T13:08:02;94093.38;;;8.14;74.37
10988;BME280;5547;42.672;23.230;2022-11-14T13:10:36;94084.31;;;8.22;74.23
10988;BME280;5547;42.672;23.230;2022-11-14T13:13:07;94087.72;;;8.19;74.34
10988;BME280;5547;42.672;23.230;2022-11-14T13:16:00;94095.75;;;8.33;73.91
10988;BME280;5547;42.672;23.230;2022-11-14T13:18:51;94092.81;;;8.46;72.84
10988;BME280;5547;42.672;23.230;2022-11-14T13:21:36;94086.09;;;8.62;72.43
10988;BME280;5547;42.672;23.230;2022-11-14T13:24:12;94083.38;;;8.52;72.73
10988;BME280;5547;42.672;23.230;2022-11-14T13:26:39;94082.63;;;8.55;72.88
10988;BME280;5547;42.672;23.230;2022-11-14T13:29:04;94081.75;;;8.33;74.12
10988;BME280;5547;42.672;23.230;2022-11-14T13:37:07;94082.25;;;7.94;75.71
10988;BME280;5547;42.672;23.230;2022-11-14T13:47:33;94072.22;;;8.25;74.46
10988;BME280;5547;42.672;23.230;2022-11-14T13:50:05;94075.53;;;8.11;75.21
10988;BME280;5547;42.672;23.230;2022-11-14T13:52:32;94072.13;;;8.07;75.15
10988;BME280;5547;42.672;23.230;2022-11-14T13:54:58;94073.19;;;7.98;75.37
10988;BME280;5547;42.672;23.230;2022-11-14T14:00:29;94072.59;;;7.68;76.85
10988;BME280;5547;42.672;23.230;2022-11-14T14:15:24;94058.94;;;6.84;82.64
10988;BME280;5547;42.672;23.230;2022-11-14T14:18:00;94058.09;;;6.72;84.00
10988;BME280;5547;42.672;23.230;2022-11-14T14:20:40;94055.69;;;6.60;84.52
10988;BME280;5547;42.672;23.230;2022-11-14T14:31:00;94047.63;;;6.19;88.46
10988;BME280;5547;42.672;23.230;2022-11-14T14:33:25;94053.44;;;6.02;89.28
10988;BME280;5547;42.672;23.230;2022-11-14T14:35:51;94027.09;;;5.56;90.45
10988;BME280;5547;42.672;23.230;2022-11-14T14:38:24;94054.34;;;5.63;90.98
10988;BME280;5547;42.672;23.230;2022-11-14T14:40:51;94051.03;;;5.66;91.52
10988;BME280;5547;42.672;23.230;2022-11-14T14:43:24;94054.25;;;5.56;91.49
10988;BME280;5547;42.672;23.230;2022-11-14T14:45:53;94054.44;;;5.44;91.98
10988;BME280;5547;42.672;23.230;2022-11-14T14:48:23;94054.00;;;5.19;93.22